sensor_id;sensor_type;location;lat;lon;timestamp;P1;durP1;ratioP1;P2;durP2;ratioP2
16197;SDS011;8206;51.440;6.914;2024-03-07T00:01:39;7.23;;;6.50;;
16197;SDS011;8206;51.440;6.914;2024-03-07T00:04:06;14.30;;;10.60;;
16197;SDS011;8206;51.440;6.914;2024-03-07T00:06:33;8.07;;;7.57;;
16197;SDS011;8206;51.440;6.914;2024-03-07T00:09:00;8.73;;;8.17;;
16197;SDS011;8206;51.440;6.914;2024-03-07T00:11:27;17.90;;;12.00;;
16197;SDS011;8206;51.440;6.914;2024-03-07T00:13:55;8.23;;;7.23;;
16197;SDS011;8206;51.440;6.914;2024-03-07T00:16:22;13.67;;;8.37;;
16197;SDS011;8206;51.440;6.914;2024-03-07T00:18:50;12.43;;;8.03;;
16197;SDS011;8206;51.440;6.914;2024-03-07T00:21:17;9.23;;;6.80;;
16197;SDS011;8206;51.440;6.914;2024-03-07T00:23:43;9.67;;;8.97;;
16197;SDS011;8206;51.440;6.914;2024-03-07T00:26:10;17.93;;;9.07;;
16197;SDS011;8206;51.440;6.914;2024-03-07T00:28:36;11.13;;;8.67;;
16197;SDS011;8206;51.440;6.914;2024-03-07T00:31:04;8.23;;;7.60;;
16197;SDS011;8206;51.440;6.914;2024-03-07T00:33:32;14.00;;;9.77;;
16197;SDS011;8206;51.440;6.914;2024-03-07T00:36:00;6.90;;;6.00;;
16197;SDS011;8206;51.440;6.914;2024-03-07T00:38:27;15.67;;;7.57;;
16197;SDS011;8206;51.440;6.914;2024-03-07T00:40:53;14.37;;;7.03;;
16197;SDS011;8206;51.440;6.914;2024-03-07T00:43:20;10.57;;;9.47;;
16197;SDS011;8206;51.440;6.914;2024-03-07T00:45:47;13.77;;;9.80;;
16197;SDS011;8206;51.440;6.914;2024-03-07T00:48:15;9.87;;;8.63;;
16197;SDS011;8206;51.440;6.914;2024-03-07T00:50:41;9.43;;;6.73;;
16197;SDS011;8206;51.440;6.914;2024-03-07T00:53:09;13.23;;;8.60;;
16197;SDS011;8206;51.440;6.914;2024-03-07T00:55:36;12.07;;;9.33;;
16197;SDS011;8206;51.440;6.914;2024-03-07T00:58:03;13.27;;;7.93;;
16197;SDS011;8206;51.440;6.914;2024-03-07T01:00:31;9.87;;;6.97;;
16197;SDS011;8206;51.440;6.914;2024-03-07T01:02:58;9.60;;;7.97;;
16197;SDS011;8206;51.440;6.914;2024-03-07T01:05:24;14.03;;;9.67;;
16197;SDS011;8206;51.440;6.914;2024-03-07T01:07:51;6.53;;;5.30;;
16197;SDS011;8206;51.440;6.914;2024-03-07T01:10:19;7.70;;;7.17;;
16197;SDS011;8206;51.440;6.914;2024-03-07T01:12:47;16.60;;;10.07;;
16197;SDS011;8206;51.440;6.914;2024-03-07T01:15:15;13.10;;;8.20;;
16197;SDS011;8206;51.440;6.914;2024-03-07T01:17:41;8.57;;;7.00;;
16197;SDS011;8206;51.440;6.914;2024-03-07T01:20:10;33.57;;;7.93;;
16197;SDS011;8206;51.440;6.914;2024-03-07T01:22:36;10.33;;;8.47;;
16197;SDS011;8206;51.440;6.914;2024-03-07T01:25:03;6.17;;;5.77;;
16197;SDS011;8206;51.440;6.914;2024-03-07T01:27:32;15.00;;;8.70;;
16197;SDS011;8206;51.440;6.914;2024-03-07T01:29:59;15.30;;;9.50;;
16197;SDS011;8206;51.440;6.914;2024-03-07T01:32:26;12.03;;;7.60;;
16197;SDS011;8206;51.440;6.914;2024-03-07T01:34:53;9.17;;;7.23;;
16197;SDS011;8206;51.440;6.914;2024-03-07T01:37:20;8.67;;;7.50;;
16197;SDS011;8206;51.440;6.914;2024-03-07T01:39:46;7.23;;;6.63;;
16197;SDS011;8206;51.440;6.914;2024-03-07T01:42:13;10.97;;;7.40;;
16197;SDS011;8206;51.440;6.914;2024-03-07T01:44:41;8.47;;;7.97;;
16197;SDS011;8206;51.440;6.914;2024-03-07T01:47:09;20.80;;;8.83;;
16197;SDS011;8206;51.440;6.914;2024-03-07T01:49:36;18.43;;;10.33;;
16197;SDS011;8206;51.440;6.914;2024-03-07T01:52:04;5.73;;;5.27;;
16197;SDS011;8206;51.440;6.914;2024-03-07T01:54:31;11.00;;;10.03;;
16197;SDS011;8206;51.440;6.914;2024-03-07T01:56:58;9.50;;;8.63;;
16197;SDS011;8206;51.440;6.914;2024-03-07T01:59:26;10.73;;;7.03;;
16197;SDS011;8206;51.440;6.914;2024-03-07T02:01:56;8.60;;;7.93;;
16197;SDS011;8206;51.440;6.914;2024-03-07T02:04:23;9.10;;;8.30;;
16197;SDS011;8206;51.440;6.914;2024-03-07T02:06:49;11.47;;;8.33;;
16197;SDS011;8206;51.440;6.914;2024-03-07T02:09:18;17.30;;;8.33;;
16197;SDS011;8206;51.440;6.914;2024-03-07T02:11:47;8.67;;;7.83;;
16197;SDS011;8206;51.440;6.914;2024-03-07T02:14:14;6.63;;;6.13;;
16197;SDS011;8206;51.440;6.914;2024-03-07T02:16:41;11.37;;;8.97;;
16197;SDS011;8206;51.440;6.914;2024-03-07T02:19:10;10.10;;;8.13;;
16197;SDS011;8206;51.440;6.914;2024-03-07T02:21:41;8.17;;;7.63;;
16197;SDS011;8206;51.440;6.914;2024-03-07T02:24:08;14.67;;;8.97;;
16197;SDS011;8206;51.440;6.914;2024-03-07T02:26:34;12.27;;;8.93;;
16197;SDS011;8206;51.440;6.914;2024-03-07T02:29:01;8.43;;;7.80;;
16197;SDS011;8206;51.440;6.914;2024-03-07T02:31:29;10.80;;;9.73;;
16197;SDS011;8206;51.440;6.914;2024-03-07T02:34:01;11.87;;;8.90;;
16197;SDS011;8206;51.440;6.914;2024-03-07T02:36:28;9.47;;;8.57;;
16197;SDS011;8206;51.440;6.914;2024-03-07T02:38:56;12.30;;;9.10;;
16197;SDS011;8206;51.440;6.914;2024-03-07T02:41:24;11.47;;;9.00;;
16197;SDS011;8206;51.440;6.914;2024-03-07T02:43:51;10.23;;;9.33;;
16197;SDS011;8206;51.440;6.914;2024-03-07T02:46:18;12.20;;;11.10;;
16197;SDS011;8206;51.440;6.914;2024-03-07T02:48:45;11.50;;;8.40;;
16197;SDS011;8206;51.440;6.914;2024-03-07T02:51:11;9.87;;;8.40;;
16197;SDS011;8206;51.440;6.914;2024-03-07T02:53:39;10.27;;;8.70;;
16197;SDS011;8206;51.440;6.914;2024-03-07T02:56:07;21.60;;;11.17;;
16197;SDS011;8206;51.440;6.914;2024-03-07T02:58:34;9.17;;;8.47;;
16197;SDS011;8206;51.440;6.914;2024-03-07T03:01:01;12.07;;;10.87;;
16197;SDS011;8206;51.440;6.914;2024-03-07T03:03:29;8.17;;;7.37;;
16197;SDS011;8206;51.440;6.914;2024-03-07T03:05:57;8.57;;;8.00;;
16197;SDS011;8206;51.440;6.914;2024-03-07T03:08:24;8.13;;;6.40;;
16197;SDS011;8206;51.440;6.914;2024-03-07T03:10:53;9.23;;;8.43;;
16197;SDS011;8206;51.440;6.914;2024-03-07T03:13:23;10.03;;;9.33;;
16197;SDS011;8206;51.440;6.914;2024-03-07T03:15:49;10.50;;;9.37;;
16197;SDS011;8206;51.440;6.914;2024-03-07T03:18:16;7.27;;;6.77;;
16197;SDS011;8206;51.440;6.914;2024-03-07T03:20:43;8.77;;;7.90;;
16197;SDS011;8206;51.440;6.914;2024-03-07T03:23:13;7.30;;;6.60;;
16197;SDS011;8206;51.440;6.914;2024-03-07T03:25:40;7.27;;;6.57;;
16197;SDS011;8206;51.440;6.914;2024-03-07T03:28:08;12.93;;;9.50;;
16197;SDS011;8206;51.440;6.914;2024-03-07T03:30:37;15.77;;;7.53;;
16197;SDS011;8206;51.440;6.914;2024-03-07T03:33:04;9.43;;;8.53;;
16197;SDS011;8206;51.440;6.914;2024-03-07T03:35:31;6.13;;;5.70;;
16197;SDS011;8206;51.440;6.914;2024-03-07T03:37:58;17.23;;;11.73;;
16197;SDS011;8206;51.440;6.914;2024-03-07T03:40:25;7.17;;;6.50;;
16197;SDS011;8206;51.440;6.914;2024-03-07T03:42:52;29.33;;;10.70;;
16197;SDS011;8206;51.440;6.914;2024-03-07T03:45:19;13.77;;;9.80;;
16197;SDS011;8206;51.440;6.914;2024-03-07T03:47:47;10.57;;;8.90;;
16197;SDS011;8206;51.440;6.914;2024-03-07T03:50:14;8.13;;;7.57;;
16197;SDS011;8206;51.440;6.914;2024-03-07T03:52:41;10.67;;;9.07;;
16197;SDS011;8206;51.440;6.914;2024-03-07T03:55:08;22.37;;;13.60;;
16197;SDS011;8206;51.440;6.914;2024-03-07T03:57:37;10.37;;;9.20;;
16197;SDS011;8206;51.440;6.914;2024-03-07T04:00:05;11.77;;;10.53;;
16197;SDS011;8206;51.440;6.914;2024-03-07T04:02:37;13.07;;;10.07;;
16197;SDS011;8206;51.440;6.914;2024-03-07T04:05:06;12.03;;;8.43;;
16197;SDS011;8206;51.440;6.914;2024-03-07T04:07:34;9.50;;;8.80;;
16197;SDS011;8206;51.440;6.914;2024-03-07T04:10:01;12.03;;;8.53;;
16197;SDS011;8206;51.440;6.914;2024-03-07T04:12:28;15.90;;;11.17;;
16197;SDS011;8206;51.440;6.914;2024-03-07T04:14:55;9.70;;;8.90;;
16197;SDS011;8206;51.440;6.914;2024-03-07T04:17:22;19.27;;;10.53;;
16197;SDS011;8206;51.440;6.914;2024-03-07T04:19:50;11.73;;;10.77;;
16197;SDS011;8206;51.440;6.914;2024-03-07T04:22:18;8.40;;;7.80;;
16197;SDS011;8206;51.440;6.914;2024-03-07T04:24:45;9.70;;;9.13;;
16197;SDS011;8206;51.440;6.914;2024-03-07T04:27:13;11.10;;;7.13;;
16197;SDS011;8206;51.440;6.914;2024-03-07T04:29:40;10.30;;;8.30;;
16197;SDS011;8206;51.440;6.914;2024-03-07T04:32:07;10.67;;;8.07;;
16197;SDS011;8206;51.440;6.914;2024-03-07T04:34:34;13.80;;;10.37;;
16197;SDS011;8206;51.440;6.914;2024-03-07T04:37:01;14.60;;;7.13;;
16197;SDS011;8206;51.440;6.914;2024-03-07T04:39:30;9.60;;;7.60;;
16197;SDS011;8206;51.440;6.914;2024-03-07T04:41:58;9.07;;;6.30;;
16197;SDS011;8206;51.440;6.914;2024-03-07T04:44:26;7.90;;;6.20;;
16197;SDS011;8206;51.440;6.914;2024-03-07T04:46:53;8.67;;;8.03;;
16197;SDS011;8206;51.440;6.914;2024-03-07T04:49:21;9.83;;;7.80;;
16197;SDS011;8206;51.440;6.914;2024-03-07T04:51:49;9.20;;;7.13;;
16197;SDS011;8206;51.440;6.914;2024-03-07T04:54:16;8.57;;;5.77;;
16197;SDS011;8206;51.440;6.914;2024-03-07T04:56:44;8.30;;;7.60;;
16197;SDS011;8206;51.440;6.914;2024-03-07T04:59:11;10.87;;;8.00;;
16197;SDS011;8206;51.440;6.914;2024-03-07T05:01:38;9.53;;;8.67;;
16197;SDS011;8206;51.440;6.914;2024-03-07T05:04:05;6.30;;;5.83;;
16197;SDS011;8206;51.440;6.914;2024-03-07T05:06:32;10.90;;;6.50;;
16197;SDS011;8206;51.440;6.914;2024-03-07T05:08:59;6.47;;;5.87;;
16197;SDS011;8206;51.440;6.914;2024-03-07T05:11:28;14.90;;;7.20;;
16197;SDS011;8206;51.440;6.914;2024-03-07T05:13:56;8.33;;;7.60;;
16197;SDS011;8206;51.440;6.914;2024-03-07T05:16:23;9.30;;;7.03;;
16197;SDS011;8206;51.440;6.914;2024-03-07T05:18:50;12.03;;;11.00;;
16197;SDS011;8206;51.440;6.914;2024-03-07T05:21:17;13.70;;;7.77;;
16197;SDS011;8206;51.440;6.914;2024-03-07T05:24:02;5.20;;;4.93;;
16197;SDS011;8206;51.440;6.914;2024-03-07T05:26:30;7.53;;;6.83;;
16197;SDS011;8206;51.440;6.914;2024-03-07T05:29:00;14.20;;;8.77;;
16197;SDS011;8206;51.440;6.914;2024-03-07T05:31:30;7.30;;;6.73;;
16197;SDS011;8206;51.440;6.914;2024-03-07T05:33:58;6.83;;;6.23;;
16197;SDS011;8206;51.440;6.914;2024-03-07T05:36:25;7.93;;;7.37;;
16197;SDS011;8206;51.440;6.914;2024-03-07T05:38:52;13.23;;;8.73;;
16197;SDS011;8206;51.440;6.914;2024-03-07T05:41:19;10.10;;;8.30;;
16197;SDS011;8206;51.440;6.914;2024-03-07T05:43:45;17.90;;;6.73;;
16197;SDS011;8206;51.440;6.914;2024-03-07T05:46:13;8.03;;;6.33;;
16197;SDS011;8206;51.440;6.914;2024-03-07T05:48:40;12.53;;;6.67;;
16197;SDS011;8206;51.440;6.914;2024-03-07T05:51:07;8.13;;;6.97;;
16197;SDS011;8206;51.440;6.914;2024-03-07T05:53:35;9.77;;;8.53;;
16197;SDS011;8206;51.440;6.914;2024-03-07T05:56:02;15.57;;;10.67;;
16197;SDS011;8206;51.440;6.914;2024-03-07T05:58:29;11.83;;;8.70;;
16197;SDS011;8206;51.440;6.914;2024-03-07T06:00:56;21.57;;;8.33;;
16197;SDS011;8206;51.440;6.914;2024-03-07T06:03:24;9.93;;;9.23;;
16197;SDS011;8206;51.440;6.914;2024-03-07T06:05:50;8.30;;;6.93;;
16197;SDS011;8206;51.440;6.914;2024-03-07T06:08:19;13.07;;;7.57;;
16197;SDS011;8206;51.440;6.914;2024-03-07T06:10:46;6.10;;;5.60;;
16197;SDS011;8206;51.440;6.914;2024-03-07T06:13:15;9.97;;;9.20;;
16197;SDS011;8206;51.440;6.914;2024-03-07T06:15:43;9.30;;;8.40;;
16197;SDS011;8206;51.440;6.914;2024-03-07T06:18:10;13.20;;;8.47;;
16197;SDS011;8206;51.440;6.914;2024-03-07T06:20:39;8.33;;;6.97;;
16197;SDS011;8206;51.440;6.914;2024-03-07T06:23:07;16.93;;;8.80;;
16197;SDS011;8206;51.440;6.914;2024-03-07T06:25:35;7.00;;;6.40;;
16197;SDS011;8206;51.440;6.914;2024-03-07T06:28:03;12.63;;;8.23;;
16197;SDS011;8206;51.440;6.914;2024-03-07T06:30:35;10.50;;;8.67;;
16197;SDS011;8206;51.440;6.914;2024-03-07T06:33:03;6.37;;;4.97;;
16197;SDS011;8206;51.440;6.914;2024-03-07T06:35:30;14.97;;;9.00;;
16197;SDS011;8206;51.440;6.914;2024-03-07T06:37:58;6.47;;;5.97;;
16197;SDS011;8206;51.440;6.914;2024-03-07T06:40:24;5.50;;;5.10;;
16197;SDS011;8206;51.440;6.914;2024-03-07T06:42:51;34.20;;;10.47;;
16197;SDS011;8206;51.440;6.914;2024-03-07T06:45:18;6.73;;;5.93;;
16197;SDS011;8206;51.440;6.914;2024-03-07T06:47:45;8.07;;;7.33;;
16197;SDS011;8206;51.440;6.914;2024-03-07T06:50:12;17.40;;;9.27;;
16197;SDS011;8206;51.440;6.914;2024-03-07T06:52:45;10.80;;;7.60;;
16197;SDS011;8206;51.440;6.914;2024-03-07T06:55:14;8.67;;;7.70;;
16197;SDS011;8206;51.440;6.914;2024-03-07T06:57:42;11.93;;;7.57;;
16197;SDS011;8206;51.440;6.914;2024-03-07T07:00:09;14.10;;;8.53;;
16197;SDS011;8206;51.440;6.914;2024-03-07T07:02:37;10.23;;;8.60;;
16197;SDS011;8206;51.440;6.914;2024-03-07T07:05:04;15.90;;;9.30;;
16197;SDS011;8206;51.440;6.914;2024-03-07T07:07:36;23.50;;;9.47;;
16197;SDS011;8206;51.440;6.914;2024-03-07T07:10:03;6.77;;;5.93;;
16197;SDS011;8206;51.440;6.914;2024-03-07T07:12:33;8.03;;;7.47;;
16197;SDS011;8206;51.440;6.914;2024-03-07T07:15:00;22.13;;;9.73;;
16197;SDS011;8206;51.440;6.914;2024-03-07T07:17:28;17.97;;;6.47;;
16197;SDS011;8206;51.440;6.914;2024-03-07T07:19:55;10.33;;;7.17;;
16197;SDS011;8206;51.440;6.914;2024-03-07T07:22:23;11.20;;;8.23;;
16197;SDS011;8206;51.440;6.914;2024-03-07T07:24:50;10.20;;;5.83;;
16197;SDS011;8206;51.440;6.914;2024-03-07T07:27:17;19.97;;;10.13;;
16197;SDS011;8206;51.440;6.914;2024-03-07T07:29:45;13.40;;;7.93;;
16197;SDS011;8206;51.440;6.914;2024-03-07T07:32:11;8.30;;;6.53;;
16197;SDS011;8206;51.440;6.914;2024-03-07T07:34:38;9.00;;;7.33;;
16197;SDS011;8206;51.440;6.914;2024-03-07T07:37:05;6.73;;;6.23;;
16197;SDS011;8206;51.440;6.914;2024-03-07T07:39:34;7.10;;;6.27;;
16197;SDS011;8206;51.440;6.914;2024-03-07T07:42:00;6.73;;;6.23;;
16197;SDS011;8206;51.440;6.914;2024-03-07T07:44:27;14.73;;;6.70;;
16197;SDS011;8206;51.440;6.914;2024-03-07T07:46:56;14.53;;;10.43;;
16197;SDS011;8206;51.440;6.914;2024-03-07T07:49:22;5.43;;;4.93;;
16197;SDS011;8206;51.440;6.914;2024-03-07T07:51:49;11.23;;;7.73;;
16197;SDS011;8206;51.440;6.914;2024-03-07T07:54:17;23.77;;;11.63;;
16197;SDS011;8206;51.440;6.914;2024-03-07T07:56:44;8.20;;;7.33;;
16197;SDS011;8206;51.440;6.914;2024-03-07T07:59:12;8.27;;;7.10;;
16197;SDS011;8206;51.440;6.914;2024-03-07T08:01:39;6.97;;;5.33;;
16197;SDS011;8206;51.440;6.914;2024-03-07T08:04:08;33.43;;;8.50;;
16197;SDS011;8206;51.440;6.914;2024-03-07T08:06:36;8.53;;;7.63;;
16197;SDS011;8206;51.440;6.914;2024-03-07T08:09:03;14.53;;;8.40;;
16197;SDS011;8206;51.440;6.914;2024-03-07T08:11:32;12.43;;;9.60;;
16197;SDS011;8206;51.440;6.914;2024-03-07T08:13:59;7.67;;;6.87;;
16197;SDS011;8206;51.440;6.914;2024-03-07T08:16:26;9.00;;;8.13;;
16197;SDS011;8206;51.440;6.914;2024-03-07T08:18:52;27.73;;;6.37;;
16197;SDS011;8206;51.440;6.914;2024-03-07T08:21:22;7.27;;;6.77;;
16197;SDS011;8206;51.440;6.914;2024-03-07T08:23:49;10.70;;;9.70;;
16197;SDS011;8206;51.440;6.914;2024-03-07T08:26:16;13.20;;;8.07;;
16197;SDS011;8206;51.440;6.914;2024-03-07T08:28:43;11.03;;;7.60;;
16197;SDS011;8206;51.440;6.914;2024-03-07T08:31:10;8.13;;;7.40;;
16197;SDS011;8206;51.440;6.914;2024-03-07T08:33:37;28.50;;;9.53;;
16197;SDS011;8206;51.440;6.914;2024-03-07T08:36:04;6.87;;;6.27;;
16197;SDS011;8206;51.440;6.914;2024-03-07T08:38:36;34.53;;;7.23;;
16197;SDS011;8206;51.440;6.914;2024-03-07T08:41:03;12.47;;;8.47;;
16197;SDS011;8206;51.440;6.914;2024-03-07T08:43:30;6.43;;;4.53;;
16197;SDS011;8206;51.440;6.914;2024-03-07T08:45:56;7.73;;;7.23;;
16197;SDS011;8206;51.440;6.914;2024-03-07T08:48:23;7.57;;;6.97;;
16197;SDS011;8206;51.440;6.914;2024-03-07T08:50:50;5.20;;;4.97;;
16197;SDS011;8206;51.440;6.914;2024-03-07T08:53:17;6.57;;;5.20;;
16197;SDS011;8206;51.440;6.914;2024-03-07T08:55:46;8.87;;;5.80;;
16197;SDS011;8206;51.440;6.914;2024-03-07T08:58:12;7.67;;;6.00;;
16197;SDS011;8206;51.440;6.914;2024-03-07T09:00:39;9.37;;;5.00;;
16197;SDS011;8206;51.440;6.914;2024-03-07T09:03:06;5.43;;;5.00;;
16197;SDS011;8206;51.440;6.914;2024-03-07T09:05:34;5.63;;;5.10;;
16197;SDS011;8206;51.440;6.914;2024-03-07T09:08:02;9.53;;;6.23;;
16197;SDS011;8206;51.440;6.914;2024-03-07T09:10:29;4.97;;;4.53;;
16197;SDS011;8206;51.440;6.914;2024-03-07T09:12:57;5.10;;;4.80;;
16197;SDS011;8206;51.440;6.914;2024-03-07T09:15:24;8.77;;;6.33;;
16197;SDS011;8206;51.440;6.914;2024-03-07T09:17:52;7.10;;;5.33;;
16197;SDS011;8206;51.440;6.914;2024-03-07T09:20:18;6.07;;;5.03;;
16197;SDS011;8206;51.440;6.914;2024-03-07T09:22:46;20.00;;;5.30;;
16197;SDS011;8206;51.440;6.914;2024-03-07T09:25:13;6.90;;;5.87;;
16197;SDS011;8206;51.440;6.914;2024-03-07T09:27:41;6.80;;;6.17;;
16197;SDS011;8206;51.440;6.914;2024-03-07T09:30:09;6.97;;;5.80;;
16197;SDS011;8206;51.440;6.914;2024-03-07T09:32:39;4.93;;;4.50;;
16197;SDS011;8206;51.440;6.914;2024-03-07T09:35:07;5.83;;;5.23;;
16197;SDS011;8206;51.440;6.914;2024-03-07T09:37:36;7.93;;;5.73;;
16197;SDS011;8206;51.440;6.914;2024-03-07T09:40:05;5.47;;;4.93;;
16197;SDS011;8206;51.440;6.914;2024-03-07T09:42:34;7.90;;;7.10;;
16197;SDS011;8206;51.440;6.914;2024-03-07T09:45:03;4.00;;;3.70;;
16197;SDS011;8206;51.440;6.914;2024-03-07T09:47:33;11.87;;;6.83;;
16197;SDS011;8206;51.440;6.914;2024-03-07T09:50:00;7.00;;;6.30;;
16197;SDS011;8206;51.440;6.914;2024-03-07T09:52:27;9.87;;;5.37;;
16197;SDS011;8206;51.440;6.914;2024-03-07T09:54:55;5.20;;;4.80;;
16197;SDS011;8206;51.440;6.914;2024-03-07T09:57:24;5.13;;;4.63;;
16197;SDS011;8206;51.440;6.914;2024-03-07T09:59:52;28.13;;;5.97;;
16197;SDS011;8206;51.440;6.914;2024-03-07T10:02:20;4.60;;;4.20;;
16197;SDS011;8206;51.440;6.914;2024-03-07T10:04:51;6.90;;;5.17;;
16197;SDS011;8206;51.440;6.914;2024-03-07T10:07:20;5.40;;;5.00;;
16197;SDS011;8206;51.440;6.914;2024-03-07T10:09:47;10.27;;;5.17;;
16197;SDS011;8206;51.440;6.914;2024-03-07T10:12:17;9.00;;;6.67;;
16197;SDS011;8206;51.440;6.914;2024-03-07T10:14:48;8.97;;;5.23;;
16197;SDS011;8206;51.440;6.914;2024-03-07T10:17:15;6.73;;;6.13;;
16197;SDS011;8206;51.440;6.914;2024-03-07T10:19:43;13.37;;;5.97;;
16197;SDS011;8206;51.440;6.914;2024-03-07T10:22:14;6.10;;;5.23;;
16197;SDS011;8206;51.440;6.914;2024-03-07T10:24:48;6.60;;;6.13;;
16197;SDS011;8206;51.440;6.914;2024-03-07T10:27:17;8.17;;;5.43;;
16197;SDS011;8206;51.440;6.914;2024-03-07T10:29:45;6.17;;;5.67;;
16197;SDS011;8206;51.440;6.914;2024-03-07T10:32:12;8.17;;;5.17;;
16197;SDS011;8206;51.440;6.914;2024-03-07T10:34:39;4.57;;;3.97;;
16197;SDS011;8206;51.440;6.914;2024-03-07T10:37:11;6.13;;;5.47;;
16197;SDS011;8206;51.440;6.914;2024-03-07T10:39:42;7.20;;;4.40;;
16197;SDS011;8206;51.440;6.914;2024-03-07T10:42:09;4.47;;;4.20;;
16197;SDS011;8206;51.440;6.914;2024-03-07T10:44:41;8.63;;;5.90;;
16197;SDS011;8206;51.440;6.914;2024-03-07T10:47:10;4.70;;;3.00;;
16197;SDS011;8206;51.440;6.914;2024-03-07T10:49:43;12.43;;;6.00;;
16197;SDS011;8206;51.440;6.914;2024-03-07T10:52:28;5.83;;;4.43;;
16197;SDS011;8206;51.440;6.914;2024-03-07T10:55:08;8.00;;;6.07;;
16197;SDS011;8206;51.440;6.914;2024-03-07T10:57:46;4.33;;;3.93;;
16197;SDS011;8206;51.440;6.914;2024-03-07T11:00:18;5.53;;;5.00;;
16197;SDS011;8206;51.440;6.914;2024-03-07T11:02:55;4.47;;;4.17;;
16197;SDS011;8206;51.440;6.914;2024-03-07T11:05:24;4.13;;;3.73;;
16197;SDS011;8206;51.440;6.914;2024-03-07T11:07:54;3.63;;;3.20;;
16197;SDS011;8206;51.440;6.914;2024-03-07T11:10:24;4.23;;;3.93;;
16197;SDS011;8206;51.440;6.914;2024-03-07T11:12:52;11.53;;;4.40;;
16197;SDS011;8206;51.440;6.914;2024-03-07T11:15:20;9.23;;;5.67;;
16197;SDS011;8206;51.440;6.914;2024-03-07T11:17:51;5.60;;;5.07;;
16197;SDS011;8206;51.440;6.914;2024-03-07T11:20:19;4.70;;;3.53;;
16197;SDS011;8206;51.440;6.914;2024-03-07T11:22:47;7.23;;;6.57;;
16197;SDS011;8206;51.440;6.914;2024-03-07T11:25:16;4.43;;;3.73;;
16197;SDS011;8206;51.440;6.914;2024-03-07T11:27:51;4.87;;;4.47;;
16197;SDS011;8206;51.440;6.914;2024-03-07T11:30:20;6.43;;;4.77;;
16197;SDS011;8206;51.440;6.914;2024-03-07T11:32:48;5.30;;;4.93;;
16197;SDS011;8206;51.440;6.914;2024-03-07T11:35:18;4.80;;;4.50;;
16197;SDS011;8206;51.440;6.914;2024-03-07T11:37:50;5.00;;;3.73;;
16197;SDS011;8206;51.440;6.914;2024-03-07T11:43:17;5.10;;;4.70;;
16197;SDS011;8206;51.440;6.914;2024-03-07T11:45:44;5.33;;;4.83;;
16197;SDS011;8206;51.440;6.914;2024-03-07T11:48:17;4.87;;;4.47;;
16197;SDS011;8206;51.440;6.914;2024-03-07T11:50:45;6.37;;;3.73;;
16197;SDS011;8206;51.440;6.914;2024-03-07T11:53:12;6.47;;;4.93;;
16197;SDS011;8206;51.440;6.914;2024-03-07T11:55:39;4.33;;;4.13;;
16197;SDS011;8206;51.440;6.914;2024-03-07T11:58:10;6.00;;;3.70;;
16197;SDS011;8206;51.440;6.914;2024-03-07T12:00:42;2.97;;;2.77;;
16197;SDS011;8206;51.440;6.914;2024-03-07T12:03:11;4.83;;;4.43;;
16197;SDS011;8206;51.440;6.914;2024-03-07T12:05:39;4.47;;;4.20;;
16197;SDS011;8206;51.440;6.914;2024-03-07T12:08:08;5.67;;;4.90;;
16197;SDS011;8206;51.440;6.914;2024-03-07T12:10:36;6.63;;;4.30;;
16197;SDS011;8206;51.440;6.914;2024-03-07T12:13:03;7.57;;;4.67;;
16197;SDS011;8206;51.440;6.914;2024-03-07T12:15:31;3.40;;;3.17;;
16197;SDS011;8206;51.440;6.914;2024-03-07T12:17:59;7.77;;;5.90;;
16197;SDS011;8206;51.440;6.914;2024-03-07T12:20:27;5.20;;;4.87;;
16197;SDS011;8206;51.440;6.914;2024-03-07T12:22:58;5.13;;;4.73;;
16197;SDS011;8206;51.440;6.914;2024-03-07T12:25:27;7.47;;;4.57;;
16197;SDS011;8206;51.440;6.914;2024-03-07T12:28:04;5.47;;;5.03;;
16197;SDS011;8206;51.440;6.914;2024-03-07T12:30:35;9.07;;;4.23;;
16197;SDS011;8206;51.440;6.914;2024-03-07T12:33:14;6.30;;;5.80;;
16197;SDS011;8206;51.440;6.914;2024-03-07T12:35:41;4.33;;;3.93;;
16197;SDS011;8206;51.440;6.914;2024-03-07T12:38:09;5.53;;;5.17;;
16197;SDS011;8206;51.440;6.914;2024-03-07T12:40:38;4.60;;;4.30;;
16197;SDS011;8206;51.440;6.914;2024-03-07T12:43:12;5.60;;;5.13;;
16197;SDS011;8206;51.440;6.914;2024-03-07T12:45:42;4.60;;;4.30;;
16197;SDS011;8206;51.440;6.914;2024-03-07T12:48:10;4.10;;;3.40;;
16197;SDS011;8206;51.440;6.914;2024-03-07T12:50:40;6.87;;;6.27;;
16197;SDS011;8206;51.440;6.914;2024-03-07T12:53:07;4.60;;;4.27;;
16197;SDS011;8206;51.440;6.914;2024-03-07T12:55:37;6.10;;;4.37;;
16197;SDS011;8206;51.440;6.914;2024-03-07T12:58:06;4.23;;;3.83;;
16197;SDS011;8206;51.440;6.914;2024-03-07T13:00:34;4.67;;;4.20;;
16197;SDS011;8206;51.440;6.914;2024-03-07T13:03:01;5.33;;;5.03;;
16197;SDS011;8206;51.440;6.914;2024-03-07T13:05:28;4.37;;;3.93;;
16197;SDS011;8206;51.440;6.914;2024-03-07T13:07:56;8.23;;;5.00;;
16197;SDS011;8206;51.440;6.914;2024-03-07T13:10:23;6.83;;;3.43;;
16197;SDS011;8206;51.440;6.914;2024-03-07T13:12:49;9.00;;;5.77;;
16197;SDS011;8206;51.440;6.914;2024-03-07T13:15:17;4.40;;;3.93;;
16197;SDS011;8206;51.440;6.914;2024-03-07T13:17:46;8.63;;;5.03;;
16197;SDS011;8206;51.440;6.914;2024-03-07T13:20:14;26.23;;;7.40;;
16197;SDS011;8206;51.440;6.914;2024-03-07T13:22:41;8.10;;;4.97;;
16197;SDS011;8206;51.440;6.914;2024-03-07T13:25:11;4.10;;;3.70;;
16197;SDS011;8206;51.440;6.914;2024-03-07T13:27:42;3.70;;;3.40;;
16197;SDS011;8206;51.440;6.914;2024-03-07T13:30:11;4.63;;;4.13;;
16197;SDS011;8206;51.440;6.914;2024-03-07T13:32:48;5.50;;;5.00;;
16197;SDS011;8206;51.440;6.914;2024-03-07T13:35:16;6.53;;;5.57;;
16197;SDS011;8206;51.440;6.914;2024-03-07T13:37:44;4.07;;;3.77;;
16197;SDS011;8206;51.440;6.914;2024-03-07T13:40:13;6.80;;;3.83;;
16197;SDS011;8206;51.440;6.914;2024-03-07T13:42:48;9.30;;;4.70;;
16197;SDS011;8206;51.440;6.914;2024-03-07T13:45:17;4.43;;;4.13;;
16197;SDS011;8206;51.440;6.914;2024-03-07T13:47:45;4.27;;;3.87;;
16197;SDS011;8206;51.440;6.914;2024-03-07T13:50:13;4.03;;;3.80;;
16197;SDS011;8206;51.440;6.914;2024-03-07T13:52:40;8.93;;;3.80;;
16197;SDS011;8206;51.440;6.914;2024-03-07T13:55:20;3.90;;;3.60;;
16197;SDS011;8206;51.440;6.914;2024-03-07T13:57:49;6.33;;;4.10;;
16197;SDS011;8206;51.440;6.914;2024-03-07T14:00:25;4.37;;;3.27;;
16197;SDS011;8206;51.440;6.914;2024-03-07T14:03:08;7.40;;;3.93;;
16197;SDS011;8206;51.440;6.914;2024-03-07T14:05:54;3.60;;;3.30;;
16197;SDS011;8206;51.440;6.914;2024-03-07T14:08:46;3.87;;;3.67;;
16197;SDS011;8206;51.440;6.914;2024-03-07T14:24:01;11.13;;;3.90;;
16197;SDS011;8206;51.440;6.914;2024-03-07T14:29:45;6.80;;;4.47;;
16197;SDS011;8206;51.440;6.914;2024-03-07T14:32:17;4.57;;;4.20;;
16197;SDS011;8206;51.440;6.914;2024-03-07T14:34:47;2.83;;;2.63;;
16197;SDS011;8206;51.440;6.914;2024-03-07T14:37:22;3.43;;;3.17;;
16197;SDS011;8206;51.440;6.914;2024-03-07T14:39:52;2.10;;;2.00;;
16197;SDS011;8206;51.440;6.914;2024-03-07T14:42:21;3.43;;;3.13;;
16197;SDS011;8206;51.440;6.914;2024-03-07T14:44:48;2.93;;;2.73;;
16197;SDS011;8206;51.440;6.914;2024-03-07T14:47:16;2.27;;;2.13;;
16197;SDS011;8206;51.440;6.914;2024-03-07T14:49:45;4.17;;;3.47;;
16197;SDS011;8206;51.440;6.914;2024-03-07T14:52:13;2.70;;;2.53;;
16197;SDS011;8206;51.440;6.914;2024-03-07T14:54:40;2.60;;;2.37;;
16197;SDS011;8206;51.440;6.914;2024-03-07T14:57:08;2.50;;;2.30;;
16197;SDS011;8206;51.440;6.914;2024-03-07T14:59:36;2.90;;;2.73;;
16197;SDS011;8206;51.440;6.914;2024-03-07T15:02:03;4.83;;;3.30;;
16197;SDS011;8206;51.440;6.914;2024-03-07T15:04:35;3.57;;;2.63;;
16197;SDS011;8206;51.440;6.914;2024-03-07T15:07:03;6.63;;;2.60;;
16197;SDS011;8206;51.440;6.914;2024-03-07T15:09:31;3.03;;;2.83;;
16197;SDS011;8206;51.440;6.914;2024-03-07T15:11:59;2.40;;;2.30;;
16197;SDS011;8206;51.440;6.914;2024-03-07T15:14:25;3.10;;;2.90;;
16197;SDS011;8206;51.440;6.914;2024-03-07T15:16:52;1.07;;;1.00;;
16197;SDS011;8206;51.440;6.914;2024-03-07T15:19:19;3.73;;;2.27;;
16197;SDS011;8206;51.440;6.914;2024-03-07T15:21:45;3.93;;;2.60;;